sensor_id;sensor_type;location;lat;lon;timestamp;pressure;altitude;pressure_sealevel;temperature;humidity
66742;BME280;53654;54.152;19.432;2023-04-07T00:01:28;101927.30;;;5.44;81.34
66742;BME280;53654;54.152;19.432;2023-04-07T00:03:56;101925.64;;;5.41;81.33
66742;BME280;53654;54.152;19.432;2023-04-07T00:06:24;101929.98;;;5.42;81.66
66742;BME280;53654;54.152;19.432;2023-04-07T00:08:54;101928.08;;;5.41;81.91
66742;BME280;53654;54.152;19.432;2023-04-07T00:11:22;101926.02;;;5.42;81.87
66742;BME280;53654;54.152;19.432;2023-04-07T00:13:50;101923.17;;;5.45;82.03
66742;BME280;53654;54.152;19.432;2023-04-07T00:16:18;101925.54;;;5.49;82.04
66742;BME280;53654;54.152;19.432;2023-04-07T00:18:47;101924.23;;;5.51;82.07
66742;BME280;53654;54.152;19.432;2023-04-07T00:21:15;101918.47;;;5.50;82.19
66742;BME280;53654;54.152;19.432;2023-04-07T00:23:43;101918.11;;;5.49;82.38
66742;BME280;53654;54.152;19.432;2023-04-07T00:26:11;101915.79;;;5.47;82.34
66742;BME280;53654;54.152;19.432;2023-04-07T00:28:40;101913.32;;;5.45;82.63
66742;BME280;53654;54.152;19.432;2023-04-07T00:31:08;101910.16;;;5.44;82.81
66742;BME280;53654;54.152;19.432;2023-04-07T00:33:36;101907.66;;;5.41;82.91
66742;BME280;53654;54.152;19.432;2023-04-07T00:36:04;101906.81;;;5.42;83.14
66742;BME280;53654;54.152;19.432;2023-04-07T00:38:33;101904.88;;;5.41;83.24
66742;BME280;53654;54.152;19.432;2023-04-07T00:41:01;101901.77;;;5.42;83.36
66742;BME280;53654;54.152;19.432;2023-04-07T00:43:29;101903.75;;;5.44;83.45
66742;BME280;53654;54.152;19.432;2023-04-07T00:45:57;101899.25;;;5.44;83.70
66742;BME280;53654;54.152;19.432;2023-04-07T00:48:25;101900.07;;;5.42;83.74
66742;BME280;53654;54.152;19.432;2023-04-07T00:50:54;101899.73;;;5.42;83.67
66742;BME280;53654;54.152;19.432;2023-04-07T00:53:22;101897.90;;;5.45;83.89
66742;BME280;53654;54.152;19.432;2023-04-07T00:55:51;101898.09;;;5.45;83.97
66742;BME280;53654;54.152;19.432;2023-04-07T00:58:19;101901.35;;;5.44;84.08
66742;BME280;53654;54.152;19.432;2023-04-07T01:00:53;101904.91;;;5.42;84.22
66742;BME280;53654;54.152;19.432;2023-04-07T01:03:48;101903.56;;;5.38;84.31
66742;BME280;53654;54.152;19.432;2023-04-07T01:06:23;101896.69;;;5.34;84.63
66742;BME280;53654;54.152;19.432;2023-04-07T01:08:58;101894.30;;;5.35;84.72
66742;BME280;53654;54.152;19.432;2023-04-07T01:11:47;101893.90;;;5.39;84.82
66742;BME280;53654;54.152;19.432;2023-04-07T01:14:19;101890.91;;;5.37;84.91
66742;BME280;53654;54.152;19.432;2023-04-07T01:16:56;101893.85;;;5.37;85.00
66742;BME280;53654;54.152;19.432;2023-04-07T01:19:38;101893.23;;;5.39;85.03
66742;BME280;53654;54.152;19.432;2023-04-07T01:22:12;101889.84;;;5.41;85.12
66742;BME280;53654;54.152;19.432;2023-04-07T01:30:06;101879.67;;;5.49;85.11
66742;BME280;53654;54.152;19.432;2023-04-07T01:32:38;101876.80;;;5.51;85.07
66742;BME280;53654;54.152;19.432;2023-04-07T01:35:12;101873.89;;;5.53;85.02
66742;BME280;53654;54.152;19.432;2023-04-07T01:37:40;101867.14;;;5.52;85.19
66742;BME280;53654;54.152;19.432;2023-04-07T01:40:10;101867.52;;;5.54;85.12
66742;BME280;53654;54.152;19.432;2023-04-07T01:42:39;101864.83;;;5.56;85.13
66742;BME280;53654;54.152;19.432;2023-04-07T01:45:09;101863.36;;;5.54;85.36
66742;BME280;53654;54.152;19.432;2023-04-07T01:47:38;101863.66;;;5.52;85.57
66742;BME280;53654;54.152;19.432;2023-04-07T01:50:10;101861.05;;;5.51;85.58
66742;BME280;53654;54.152;19.432;2023-04-07T01:52:38;101864.55;;;5.53;85.58
66742;BME280;53654;54.152;19.432;2023-04-07T01:55:08;101866.20;;;5.56;85.65
66742;BME280;53654;54.152;19.432;2023-04-07T01:57:42;101863.64;;;5.57;85.81
66742;BME280;53654;54.152;19.432;2023-04-07T02:00:16;101862.48;;;5.59;85.81
66742;BME280;53654;54.152;19.432;2023-04-07T02:02:48;101865.80;;;5.60;85.82
66742;BME280;53654;54.152;19.432;2023-04-07T02:05:20;101863.44;;;5.62;85.93
66742;BME280;53654;54.152;19.432;2023-04-07T02:07:57;101866.04;;;5.62;85.94
66742;BME280;53654;54.152;19.432;2023-04-07T02:10:27;101862.98;;;5.64;86.03
66742;BME280;53654;54.152;19.432;2023-04-07T02:12:59;101862.91;;;5.67;85.84
66742;BME280;53654;54.152;19.432;2023-04-07T02:15:29;101864.27;;;5.72;85.90
66742;BME280;53654;54.152;19.432;2023-04-07T02:18:00;101863.47;;;5.75;85.89
66742;BME280;53654;54.152;19.432;2023-04-07T02:20:29;101867.31;;;5.76;85.75
66742;BME280;53654;54.152;19.432;2023-04-07T02:22:58;101868.27;;;5.79;85.79
66742;BME280;53654;54.152;19.432;2023-04-07T02:25:27;101865.05;;;5.81;85.66
66742;BME280;53654;54.152;19.432;2023-04-07T02:27:57;101861.87;;;5.85;85.64
66742;BME280;53654;54.152;19.432;2023-04-07T02:30:26;101856.77;;;5.88;85.31
66742;BME280;53654;54.152;19.432;2023-04-07T02:32:55;101856.75;;;5.88;85.36
66742;BME280;53654;54.152;19.432;2023-04-07T02:35:24;101855.60;;;5.89;85.43
66742;BME280;53654;54.152;19.432;2023-04-07T02:37:52;101853.66;;;5.89;85.22
66742;BME280;53654;54.152;19.432;2023-04-07T02:40:20;101855.69;;;5.87;85.35
66742;BME280;53654;54.152;19.432;2023-04-07T02:42:48;101861.45;;;5.89;85.42
66742;BME280;53654;54.152;19.432;2023-04-07T02:45:16;101854.02;;;5.94;85.26
66742;BME280;53654;54.152;19.432;2023-04-07T02:47:44;101859.29;;;5.97;85.12
66742;BME280;53654;54.152;19.432;2023-04-07T02:50:12;101856.58;;;5.99;84.95
66742;BME280;53654;54.152;19.432;2023-04-07T02:52:40;101850.95;;;6.02;84.92
66742;BME280;53654;54.152;19.432;2023-04-07T02:55:11;101845.94;;;6.02;84.62
66742;BME280;53654;54.152;19.432;2023-04-07T02:57:39;101843.73;;;6.04;84.56
66742;BME280;53654;54.152;19.432;2023-04-07T03:00:18;101844.39;;;6.03;84.61
66742;BME280;53654;54.152;19.432;2023-04-07T03:02:56;101840.98;;;6.05;84.59
66742;BME280;53654;54.152;19.432;2023-04-07T03:05:25;101839.02;;;6.09;84.48
66742;BME280;53654;54.152;19.432;2023-04-07T03:07:53;101836.85;;;6.12;84.46
66742;BME280;53654;54.152;19.432;2023-04-07T03:10:21;101832.99;;;6.17;84.42
66742;BME280;53654;54.152;19.432;2023-04-07T03:12:50;101832.54;;;6.20;84.13
66742;BME280;53654;54.152;19.432;2023-04-07T03:15:18;101830.60;;;6.19;83.94
66742;BME280;53654;54.152;19.432;2023-04-07T03:17:47;101831.14;;;6.20;84.11
66742;BME280;53654;54.152;19.432;2023-04-07T03:20:16;101829.35;;;6.24;84.03
66742;BME280;53654;54.152;19.432;2023-04-07T03:22:45;101830.99;;;6.27;83.93
66742;BME280;53654;54.152;19.432;2023-04-07T03:25:24;101826.49;;;6.27;83.85
66742;BME280;53654;54.152;19.432;2023-04-07T03:27:53;101828.23;;;6.28;84.00
66742;BME280;53654;54.152;19.432;2023-04-07T03:30:22;101836.77;;;6.29;83.98
66742;BME280;53654;54.152;19.432;2023-04-07T03:32:50;101836.70;;;6.33;84.29
66742;BME280;53654;54.152;19.432;2023-04-07T03:35:18;101835.27;;;6.38;84.34
66742;BME280;53654;54.152;19.432;2023-04-07T03:37:46;101830.88;;;6.42;84.41
66742;BME280;53654;54.152;19.432;2023-04-07T03:40:16;101826.41;;;6.44;84.44
66742;BME280;53654;54.152;19.432;2023-04-07T03:42:45;101820.56;;;6.39;84.27
66742;BME280;53654;54.152;19.432;2023-04-07T03:45:14;101828.58;;;6.34;84.40
66742;BME280;53654;54.152;19.432;2023-04-07T03:47:47;101828.13;;;6.30;84.75
66742;BME280;53654;54.152;19.432;2023-04-07T03:50:15;101826.02;;;6.29;84.98
66742;BME280;53654;54.152;19.432;2023-04-07T03:52:59;101825.09;;;6.26;85.13
66742;BME280;53654;54.152;19.432;2023-04-07T03:55:30;101821.48;;;6.28;85.36
66742;BME280;53654;54.152;19.432;2023-04-07T03:58:01;101819.60;;;6.29;85.32
66742;BME280;53654;54.152;19.432;2023-04-07T04:00:31;101815.09;;;6.29;85.21
66742;BME280;53654;54.152;19.432;2023-04-07T04:03:07;101818.34;;;6.27;85.39
66742;BME280;53654;54.152;19.432;2023-04-07T04:05:38;101817.23;;;6.24;85.37
66742;BME280;53654;54.152;19.432;2023-04-07T04:08:08;101818.12;;;6.25;85.43
66742;BME280;53654;54.152;19.432;2023-04-07T04:10:37;101820.18;;;6.25;85.40
66742;BME280;53654;54.152;19.432;2023-04-07T04:13:06;101817.90;;;6.23;85.44
66742;BME280;53654;54.152;19.432;2023-04-07T04:15:35;101818.98;;;6.25;85.54
66742;BME280;53654;54.152;19.432;2023-04-07T04:18:04;101819.73;;;6.27;85.57
66742;BME280;53654;54.152;19.432;2023-04-07T04:20:32;101816.83;;;6.28;85.42
66742;BME280;53654;54.152;19.432;2023-04-07T04:23:01;101814.98;;;6.31;85.37
66742;BME280;53654;54.152;19.432;2023-04-07T04:25:30;101814.53;;;6.33;85.48
66742;BME280;53654;54.152;19.432;2023-04-07T04:27:58;101814.61;;;6.37;85.28
66742;BME280;53654;54.152;19.432;2023-04-07T04:30:26;101816.92;;;6.39;85.33
66742;BME280;53654;54.152;19.432;2023-04-07T04:32:57;101821.32;;;6.41;85.16
66742;BME280;53654;54.152;19.432;2023-04-07T04:35:32;101821.15;;;6.41;84.89
66742;BME280;53654;54.152;19.432;2023-04-07T04:38:12;101816.06;;;6.39;84.94
66742;BME280;53654;54.152;19.432;2023-04-07T04:40:44;101816.89;;;6.38;85.16
66742;BME280;53654;54.152;19.432;2023-04-07T04:43:12;101819.10;;;6.36;84.84
66742;BME280;53654;54.152;19.432;2023-04-07T04:45:41;101821.73;;;6.37;85.14
66742;BME280;53654;54.152;19.432;2023-04-07T04:48:10;101823.58;;;6.42;85.26
66742;BME280;53654;54.152;19.432;2023-04-07T04:50:41;101825.40;;;6.45;85.16
66742;BME280;53654;54.152;19.432;2023-04-07T04:53:11;101836.06;;;6.49;85.07
66742;BME280;53654;54.152;19.432;2023-04-07T04:55:46;101848.98;;;6.52;85.09
66742;BME280;53654;54.152;19.432;2023-04-07T04:58:22;101854.29;;;6.56;85.01
66742;BME280;53654;54.152;19.432;2023-04-07T05:00:53;101860.89;;;6.63;84.86
66742;BME280;53654;54.152;19.432;2023-04-07T05:03:31;101858.27;;;6.69;84.48
66742;BME280;53654;54.152;19.432;2023-04-07T05:06:01;101857.52;;;6.74;84.33
66742;BME280;53654;54.152;19.432;2023-04-07T05:08:29;101851.80;;;6.82;83.98
66742;BME280;53654;54.152;19.432;2023-04-07T05:10:59;101848.98;;;6.87;83.73
66742;BME280;53654;54.152;19.432;2023-04-07T05:13:30;101841.26;;;6.90;83.48
66742;BME280;53654;54.152;19.432;2023-04-07T05:15:59;101841.96;;;6.91;83.13
66742;BME280;53654;54.152;19.432;2023-04-07T05:18:29;101844.73;;;6.90;83.15
66742;BME280;53654;54.152;19.432;2023-04-07T05:20:57;101840.86;;;6.88;83.18
66742;BME280;53654;54.152;19.432;2023-04-07T05:23:26;101843.73;;;6.85;83.29
66742;BME280;53654;54.152;19.432;2023-04-07T05:25:54;101846.62;;;6.83;83.42
66742;BME280;53654;54.152;19.432;2023-04-07T05:28:23;101856.35;;;6.83;83.37
66742;BME280;53654;54.152;19.432;2023-04-07T05:30:53;101862.38;;;6.82;83.41
66742;BME280;53654;54.152;19.432;2023-04-07T05:33:23;101866.00;;;6.81;83.37
66742;BME280;53654;54.152;19.432;2023-04-07T05:35:52;101860.17;;;6.76;83.61
66742;BME280;53654;54.152;19.432;2023-04-07T05:38:20;101864.98;;;6.75;83.61
66742;BME280;53654;54.152;19.432;2023-04-07T05:40:49;101871.48;;;6.77;83.77
66742;BME280;53654;54.152;19.432;2023-04-07T05:43:23;101870.84;;;6.80;83.89
66742;BME280;53654;54.152;19.432;2023-04-07T05:45:52;101868.92;;;6.79;83.73
66742;BME280;53654;54.152;19.432;2023-04-07T05:48:20;101867.25;;;6.82;83.90
66742;BME280;53654;54.152;19.432;2023-04-07T05:50:48;101866.59;;;6.84;84.01
66742;BME280;53654;54.152;19.432;2023-04-07T05:53:17;101859.14;;;6.84;83.86
66742;BME280;53654;54.152;19.432;2023-04-07T05:55:46;101856.32;;;6.82;84.11
66742;BME280;53654;54.152;19.432;2023-04-07T05:58:33;101853.24;;;6.84;84.20
66742;BME280;53654;54.152;19.432;2023-04-07T06:01:01;101858.92;;;6.89;84.12
66742;BME280;53654;54.152;19.432;2023-04-07T06:03:29;101865.96;;;6.93;84.09
66742;BME280;53654;54.152;19.432;2023-04-07T06:06:08;101864.86;;;6.98;84.12
66742;BME280;53654;54.152;19.432;2023-04-07T06:08:37;101861.29;;;7.01;84.08
66742;BME280;53654;54.152;19.432;2023-04-07T06:11:05;101865.02;;;7.04;83.96
66742;BME280;53654;54.152;19.432;2023-04-07T06:13:33;101866.52;;;7.09;83.96
66742;BME280;53654;54.152;19.432;2023-04-07T06:16:03;101860.21;;;7.14;83.77
66742;BME280;53654;54.152;19.432;2023-04-07T06:18:31;101861.17;;;7.18;83.57
66742;BME280;53654;54.152;19.432;2023-04-07T06:20:59;101859.30;;;7.20;83.54
66742;BME280;53654;54.152;19.432;2023-04-07T06:23:28;101861.42;;;7.21;83.67
66742;BME280;53654;54.152;19.432;2023-04-07T06:25:56;101866.01;;;7.25;83.58
66742;BME280;53654;54.152;19.432;2023-04-07T06:28:24;101864.67;;;7.27;83.56
66742;BME280;53654;54.152;19.432;2023-04-07T06:30:52;101863.05;;;7.32;83.45
66742;BME280;53654;54.152;19.432;2023-04-07T06:33:20;101860.54;;;7.36;83.27
66742;BME280;53654;54.152;19.432;2023-04-07T06:35:52;101864.73;;;7.37;83.06
66742;BME280;53654;54.152;19.432;2023-04-07T06:38:20;101864.05;;;7.38;83.12
66742;BME280;53654;54.152;19.432;2023-04-07T06:40:50;101860.55;;;7.37;82.98
66742;BME280;53654;54.152;19.432;2023-04-07T06:43:18;101864.20;;;7.37;83.01
66742;BME280;53654;54.152;19.432;2023-04-07T06:45:54;101862.11;;;7.37;82.96
66742;BME280;53654;54.152;19.432;2023-04-07T06:48:22;101860.16;;;7.42;82.84
66742;BME280;53654;54.152;19.432;2023-04-07T06:50:50;101857.30;;;7.47;82.61
66742;BME280;53654;54.152;19.432;2023-04-07T06:53:18;101855.83;;;7.51;82.64
66742;BME280;53654;54.152;19.432;2023-04-07T06:55:46;101859.98;;;7.58;82.52
66742;BME280;53654;54.152;19.432;2023-04-07T06:58:14;101861.48;;;7.63;82.31
66742;BME280;53654;54.152;19.432;2023-04-07T07:00:42;101854.96;;;7.67;82.27
66742;BME280;53654;54.152;19.432;2023-04-07T07:03:10;101854.21;;;7.73;82.13
66742;BME280;53654;54.152;19.432;2023-04-07T07:05:39;101855.67;;;7.76;81.99
66742;BME280;53654;54.152;19.432;2023-04-07T07:08:07;101853.58;;;7.75;81.72
66742;BME280;53654;54.152;19.432;2023-04-07T07:10:35;101857.70;;;7.74;81.84
66742;BME280;53654;54.152;19.432;2023-04-07T07:13:03;101852.02;;;7.76;81.82
66742;BME280;53654;54.152;19.432;2023-04-07T07:15:31;101855.31;;;7.75;81.66
66742;BME280;53654;54.152;19.432;2023-04-07T07:17:59;101857.77;;;7.77;81.57
66742;BME280;53654;54.152;19.432;2023-04-07T07:20:27;101856.61;;;7.80;81.68
66742;BME280;53654;54.152;19.432;2023-04-07T07:22:55;101859.80;;;7.83;81.69
66742;BME280;53654;54.152;19.432;2023-04-07T07:25:24;101857.81;;;7.87;81.74
66742;BME280;53654;54.152;19.432;2023-04-07T07:27:53;101854.65;;;7.94;81.61
66742;BME280;53654;54.152;19.432;2023-04-07T07:30:22;101849.27;;;8.03;81.57
66742;BME280;53654;54.152;19.432;2023-04-07T07:32:52;101850.70;;;8.15;81.23
66742;BME280;53654;54.152;19.432;2023-04-07T07:35:21;101850.36;;;8.25;80.95
66742;BME280;53654;54.152;19.432;2023-04-07T07:37:49;101851.31;;;8.36;80.70
66742;BME280;53654;54.152;19.432;2023-04-07T07:40:18;101851.15;;;8.47;80.33
66742;BME280;53654;54.152;19.432;2023-04-07T07:42:47;101847.05;;;8.51;79.65
66742;BME280;53654;54.152;19.432;2023-04-07T07:45:15;101848.34;;;8.55;79.36
66742;BME280;53654;54.152;19.432;2023-04-07T07:47:44;101846.45;;;8.57;79.24
66742;BME280;53654;54.152;19.432;2023-04-07T07:50:12;101847.61;;;8.63;79.47
66742;BME280;53654;54.152;19.432;2023-04-07T07:52:40;101847.89;;;8.69;79.28
66742;BME280;53654;54.152;19.432;2023-04-07T07:55:08;101848.71;;;8.77;79.13
66742;BME280;53654;54.152;19.432;2023-04-07T07:57:37;101850.05;;;8.84;78.78
66742;BME280;53654;54.152;19.432;2023-04-07T08:00:05;101850.33;;;8.91;78.51
66742;BME280;53654;54.152;19.432;2023-04-07T08:02:39;101847.09;;;8.96;78.40
66742;BME280;53654;54.152;19.432;2023-04-07T08:05:08;101846.53;;;9.04;78.61
66742;BME280;53654;54.152;19.432;2023-04-07T08:07:36;101840.05;;;9.14;78.32
66742;BME280;53654;54.152;19.432;2023-04-07T08:10:05;101841.13;;;9.27;78.22
66742;BME280;53654;54.152;19.432;2023-04-07T08:12:34;101844.06;;;9.38;77.64
66742;BME280;53654;54.152;19.432;2023-04-07T08:15:03;101843.83;;;9.46;77.19
66742;BME280;53654;54.152;19.432;2023-04-07T08:17:31;101850.08;;;9.58;77.02
66742;BME280;53654;54.152;19.432;2023-04-07T08:19:59;101854.30;;;9.75;76.70
66742;BME280;53654;54.152;19.432;2023-04-07T08:22:28;101855.39;;;9.93;76.08
66742;BME280;53654;54.152;19.432;2023-04-07T08:24:56;101853.48;;;10.10;75.73
66742;BME280;53654;54.152;19.432;2023-04-07T08:27:24;101849.89;;;10.29;75.28
66742;BME280;53654;54.152;19.432;2023-04-07T08:30:00;101848.55;;;10.49;74.46
66742;BME280;53654;54.152;19.432;2023-04-07T08:32:35;101849.77;;;10.66;73.85
66742;BME280;53654;54.152;19.432;2023-04-07T08:35:04;101844.98;;;10.81;73.96
66742;BME280;53654;54.152;19.432;2023-04-07T08:37:33;101848.45;;;10.98;73.77
66742;BME280;53654;54.152;19.432;2023-04-07T08:40:02;101843.72;;;11.22;74.04
66742;BME280;53654;54.152;19.432;2023-04-07T08:42:32;101842.45;;;11.45;73.01
66742;BME280;53654;54.152;19.432;2023-04-07T08:45:03;101845.52;;;11.65;73.05
66742;BME280;53654;54.152;19.432;2023-04-07T08:47:33;101843.17;;;11.81;72.12
66742;BME280;53654;54.152;19.432;2023-04-07T08:50:09;101841.65;;;11.94;71.56
66742;BME280;53654;54.152;19.432;2023-04-07T08:52:54;101833.64;;;12.11;70.87
66742;BME280;53654;54.152;19.432;2023-04-07T08:55:23;101839.63;;;12.25;70.30
66742;BME280;53654;54.152;19.432;2023-04-07T08:57:53;101835.80;;;12.39;70.15
66742;BME280;53654;54.152;19.432;2023-04-07T09:00:21;101834.77;;;12.54;69.18
66742;BME280;53654;54.152;19.432;2023-04-07T09:02:50;101831.80;;;12.68;68.04
66742;BME280;53654;54.152;19.432;2023-04-07T09:05:19;101834.94;;;12.81;67.40
66742;BME280;53654;54.152;19.432;2023-04-07T09:07:48;101839.14;;;12.95;67.04
66742;BME280;53654;54.152;19.432;2023-04-07T09:10:16;101834.05;;;13.07;66.54
66742;BME280;53654;54.152;19.432;2023-04-07T09:12:44;101834.75;;;13.19;65.77
66742;BME280;53654;54.152;19.432;2023-04-07T09:15:13;101832.83;;;13.21;65.42
66742;BME280;53654;54.152;19.432;2023-04-07T09:17:41;101833.88;;;13.18;65.47
66742;BME280;53654;54.152;19.432;2023-04-07T09:20:09;101832.65;;;13.18;65.52
66742;BME280;53654;54.152;19.432;2023-04-07T09:22:40;101829.48;;;13.15;65.38
66742;BME280;53654;54.152;19.432;2023-04-07T09:25:18;101826.16;;;13.11;65.12
66742;BME280;53654;54.152;19.432;2023-04-07T09:30:29;101823.19;;;13.02;65.16
66742;BME280;53654;54.152;19.432;2023-04-07T09:32:58;101821.79;;;13.02;64.87
66742;BME280;53654;54.152;19.432;2023-04-07T09:35:27;101814.79;;;13.03;65.30
66742;BME280;53654;54.152;19.432;2023-04-07T09:38:08;101821.96;;;13.01;65.11
66742;BME280;53654;54.152;19.432;2023-04-07T09:40:36;101815.33;;;12.94;65.11
66742;BME280;53654;54.152;19.432;2023-04-07T09:43:05;101808.67;;;12.91;65.37
66742;BME280;53654;54.152;19.432;2023-04-07T09:45:33;101803.08;;;12.86;65.48
66742;BME280;53654;54.152;19.432;2023-04-07T09:48:05;101800.10;;;12.82;65.68
66742;BME280;53654;54.152;19.432;2023-04-07T09:50:40;101796.25;;;12.83;65.65
66742;BME280;53654;54.152;19.432;2023-04-07T09:53:12;101800.44;;;12.92;65.47
66742;BME280;53654;54.152;19.432;2023-04-07T09:55:40;101800.77;;;12.98;64.48
66742;BME280;53654;54.152;19.432;2023-04-07T09:58:11;101799.20;;;12.99;64.07
66742;BME280;53654;54.152;19.432;2023-04-07T10:00:44;101798.52;;;12.94;63.73
66742;BME280;53654;54.152;19.432;2023-04-07T10:03:14;101796.06;;;12.92;64.11
66742;BME280;53654;54.152;19.432;2023-04-07T10:05:43;101794.32;;;12.87;64.15
66742;BME280;53654;54.152;19.432;2023-04-07T10:08:11;101793.62;;;12.85;64.47
66742;BME280;53654;54.152;19.432;2023-04-07T10:10:41;101791.34;;;12.85;64.54
66742;BME280;53654;54.152;19.432;2023-04-07T10:13:10;101794.48;;;12.86;64.41
66742;BME280;53654;54.152;19.432;2023-04-07T10:15:39;101794.67;;;12.81;63.62
66742;BME280;53654;54.152;19.432;2023-04-07T10:18:07;101795.55;;;12.69;63.57
66742;BME280;53654;54.152;19.432;2023-04-07T10:20:39;101797.30;;;12.68;64.07
66742;BME280;53654;54.152;19.432;2023-04-07T10:23:20;101803.61;;;12.65;63.88
66742;BME280;53654;54.152;19.432;2023-04-07T10:25:51;101796.09;;;12.57;64.12
66742;BME280;53654;54.152;19.432;2023-04-07T10:28:23;101793.28;;;12.51;64.50
66742;BME280;53654;54.152;19.432;2023-04-07T10:30:53;101795.91;;;12.50;64.56
66742;BME280;53654;54.152;19.432;2023-04-07T10:33:44;101796.60;;;12.42;63.73
66742;BME280;53654;54.152;19.432;2023-04-07T10:36:16;101796.05;;;12.18;63.95
66742;BME280;53654;54.152;19.432;2023-04-07T10:41:37;101800.91;;;11.96;64.91
66742;BME280;53654;54.152;19.432;2023-04-07T10:44:07;101793.88;;;11.85;64.97
66742;BME280;53654;54.152;19.432;2023-04-07T10:49:15;101795.27;;;11.79;65.67
66742;BME280;53654;54.152;19.432;2023-04-07T10:52:27;101797.71;;;11.79;66.18
66742;BME280;53654;54.152;19.432;2023-04-07T10:55:30;101796.78;;;11.73;65.87
66742;BME280;53654;54.152;19.432;2023-04-07T11:03:51;101799.98;;;11.45;65.79
66742;BME280;53654;54.152;19.432;2023-04-07T11:06:20;101801.84;;;11.29;65.86
66742;BME280;53654;54.152;19.432;2023-04-07T11:08:49;101804.25;;;11.22;66.56
66742;BME280;53654;54.152;19.432;2023-04-07T11:11:40;101805.61;;;11.16;66.35
66742;BME280;53654;54.152;19.432;2023-04-07T11:14:09;101809.56;;;11.07;66.74
66742;BME280;53654;54.152;19.432;2023-04-07T11:16:41;101809.21;;;11.07;66.98
66742;BME280;53654;54.152;19.432;2023-04-07T11:19:11;101806.60;;;11.06;66.88
66742;BME280;53654;54.152;19.432;2023-04-07T11:21:39;101808.30;;;11.01;66.71
66742;BME280;53654;54.152;19.432;2023-04-07T11:24:07;101808.97;;;10.96;66.89
66742;BME280;53654;54.152;19.432;2023-04-07T11:26:39;101807.52;;;10.88;67.16
66742;BME280;53654;54.152;19.432;2023-04-07T11:29:08;101811.98;;;10.80;67.40
66742;BME280;53654;54.152;19.432;2023-04-07T11:31:38;101814.73;;;10.73;67.51
66742;BME280;53654;54.152;19.432;2023-04-07T11:34:07;101810.86;;;10.68;67.79
66742;BME280;53654;54.152;19.432;2023-04-07T11:36:40;101808.21;;;10.64;67.84
66742;BME280;53654;54.152;19.432;2023-04-07T11:39:19;101808.38;;;10.62;68.00
66742;BME280;53654;54.152;19.432;2023-04-07T11:41:50;101808.02;;;10.64;68.49
66742;BME280;53654;54.152;19.432;2023-04-07T11:44:18;101810.37;;;10.73;68.91
66742;BME280;53654;54.152;19.432;2023-04-07T11:46:57;101814.64;;;10.84;69.08
66742;BME280;53654;54.152;19.432;2023-04-07T11:49:26;101807.38;;;10.92;68.23
66742;BME280;53654;54.152;19.432;2023-04-07T11:54:27;101802.89;;;11.00;67.62
66742;BME280;53654;54.152;19.432;2023-04-07T11:56:55;101800.83;;;11.06;67.72
66742;BME280;53654;54.152;19.432;2023-04-07T11:59:24;101797.89;;;11.11;67.33
66742;BME280;53654;54.152;19.432;2023-04-07T12:01:52;101799.33;;;11.17;67.34
66742;BME280;53654;54.152;19.432;2023-04-07T12:04:24;101799.71;;;11.25;67.20
66742;BME280;53654;54.152;19.432;2023-04-07T12:06:52;101795.92;;;11.34;67.57
66742;BME280;53654;54.152;19.432;2023-04-07T12:09:32;101792.66;;;11.46;67.16
66742;BME280;53654;54.152;19.432;2023-04-07T12:12:04;101791.64;;;11.54;66.44
66742;BME280;53654;54.152;19.432;2023-04-07T12:14:35;101788.33;;;11.55;65.72
66742;BME280;53654;54.152;19.432;2023-04-07T12:17:03;101786.07;;;11.57;65.85
66742;BME280;53654;54.152;19.432;2023-04-07T12:19:32;101786.24;;;11.58;65.53
66742;BME280;53654;54.152;19.432;2023-04-07T12:22:03;101783.96;;;11.55;65.29
66742;BME280;53654;54.152;19.432;2023-04-07T12:24:31;101783.95;;;11.55;65.27
66742;BME280;53654;54.152;19.432;2023-04-07T12:26:59;101784.31;;;11.55;65.49
66742;BME280;53654;54.152;19.432;2023-04-07T12:29:27;101782.75;;;11.56;65.44
66742;BME280;53654;54.152;19.432;2023-04-07T12:31:56;101784.67;;;11.60;65.45
66742;BME280;53654;54.152;19.432;2023-04-07T12:34:24;101784.52;;;11.63;65.42
66742;BME280;53654;54.152;19.432;2023-04-07T12:36:54;101780.34;;;11.68;65.57
66742;BME280;53654;54.152;19.432;2023-04-07T12:39:22;101778.25;;;11.72;65.11
66742;BME280;53654;54.152;19.432;2023-04-07T12:41:50;101775.98;;;11.73;64.81
66742;BME280;53654;54.152;19.432;2023-04-07T12:44:20;101775.81;;;11.72;64.88
66742;BME280;53654;54.152;19.432;2023-04-07T12:46:48;101778.61;;;11.74;65.21
66742;BME280;53654;54.152;19.432;2023-04-07T12:49:16;101775.16;;;11.79;65.00
66742;BME280;53654;54.152;19.432;2023-04-07T12:51:44;101771.15;;;11.80;64.63
66742;BME280;53654;54.152;19.432;2023-04-07T12:54:12;101772.55;;;11.82;64.81
66742;BME280;53654;54.152;19.432;2023-04-07T12:56:41;101771.33;;;11.85;64.39
66742;BME280;53654;54.152;19.432;2023-04-07T12:59:09;101771.69;;;11.86;64.59
66742;BME280;53654;54.152;19.432;2023-04-07T13:01:37;101770.81;;;11.86;64.14
66742;BME280;53654;54.152;19.432;2023-04-07T13:04:05;101768.36;;;11.85;64.09
66742;BME280;53654;54.152;19.432;2023-04-07T13:06:34;101769.39;;;11.80;63.92
66742;BME280;53654;54.152;19.432;2023-04-07T13:09:02;101766.90;;;11.73;63.76
66742;BME280;53654;54.152;19.432;2023-04-07T13:11:30;101771.58;;;11.66;63.78
66742;BME280;53654;54.152;19.432;2023-04-07T13:13:58;101771.91;;;11.58;63.91
66742;BME280;53654;54.152;19.432;2023-04-07T13:16:28;101775.23;;;11.55;64.33
66742;BME280;53654;54.152;19.432;2023-04-07T13:18:56;101775.73;;;11.51;64.21
66742;BME280;53654;54.152;19.432;2023-04-07T13:21:25;101776.77;;;11.46;64.08
66742;BME280;53654;54.152;19.432;2023-04-07T13:24:13;101784.42;;;11.41;64.71